^^
Station Historical Data
Daily Summary for August 12, 2017 Units:  Metric    English   Both
« Previous Day
Next Day »
Daily Weekly Monthly Yearly Custom
  High: Low: Average:
Temperature: 21.3 °C 11.3 °C 16.1 °C
Dew Point: 7.2 °C 0.5 °C 3.1 °C
Humidity: 75% 30% 43%
Wind Speed: 16.3km/h 0km/h 12.2km/h
Wind Gust: 20.9km/h - -
Wind- - SW
Pressure: 1022.9 hPa 1018.8 hPa -
Precipitation: 0 mm    
Historical Graphs
 
 
Tabular Data for August 12, 2017
Time Temperature Dew Point Pressure Wind Wind Speed Wind Gust Humidity Rainfall Rate (Hourly) solar Conditions
08:50 11.3 °C 7 °C 1022.9 hPa SW 11.1 km/h 14.5 km/h 75% 0 mm 404.0 W/m2
09:00 11.4 °C 6.9 °C 1022.9 hPa SW 13 km/h 14.5 km/h 74% 0 mm 431.0 W/m2
09:20 12.1 °C 7.2 °C 1022.9 hPa SW 13 km/h 13 km/h 72% 0 mm 483.0 W/m2
09:48 12.9 °C 6.9 °C 1022.9 hPa SW 13 km/h 17.7 km/h 67% 0 mm 543.0 W/m2
10:00 13.3 °C 7.1 °C 1022.9 hPa SW 13 km/h 19.3 km/h 66% 0 mm 573.0 W/m2
10:10 13.8 °C 7.1 °C 1022.6 hPa SW 13 km/h 17.7 km/h 64% 0 mm 591.0 W/m2
10:21 14.2 °C 7 °C 1022.6 hPa SW 13 km/h 19.3 km/h 62% 0 mm 608.0 W/m2
10:51 15.2 °C 7 °C 1022.6 hPa SW 11.1 km/h 14.5 km/h 58% 0 mm 649.0 W/m2
11:02 15.6 °C 7.1 °C 1022.2 hPa SW 11.1 km/h 12.9 km/h 57% 0 mm 670.0 W/m2
11:27 16.3 °C 6.4 °C 1021.9 hPa SW 6.4 km/h 12.9 km/h 52% 0 mm 687.0 W/m2
12:23 18.3 °C 5.2 °C 1020.9 hPa Calm     42% 0 mm 687.0 W/m2
12:34 18.7 °C 5.2 °C 1020.9 hPa Calm     41% 0 mm 682.0 W/m2
13:05 19.4 °C 4.7 °C 1020.2 hPa Calm     38% 0 mm 652.0 W/m2
13:36 19.8 °C 4.3 °C 1019.9 hPa SW 13 km/h 14.5 km/h 36% 0 mm 610.0 W/m2
13:59 20.4 °C 4 °C 1019.9 hPa SW 13 km/h 14.5 km/h 34% 0 mm 563.0 W/m2
14:06 20.5 °C 3.7 °C 1019.5 hPa SW 13 km/h 14.5 km/h 33% 0 mm 541.0 W/m2
14:12 20.6 °C 3.8 °C 1019.5 hPa SW 9.7 km/h 16.1 km/h 33% 0 mm 533.0 W/m2
14:20 20.6 °C 3.8 °C 1019.5 hPa SW 13 km/h 17.7 km/h 33% 0 mm 520.0 W/m2
14:31 20.8 °C 3.9 °C 1019.5 hPa SW 13 km/h 16.1 km/h 33% 0 mm 496.0 W/m2
14:40 20.8 °C 3.5 °C 1019.5 hPa SW 9.7 km/h 17.7 km/h 32% 0 mm 471.0 W/m2
15:00 20.9 °C 3.6 °C 1019.2 hPa SW 13 km/h 14.5 km/h 32% 0 mm 418.0 W/m2
15:12 20.8 °C 3.5 °C 1019.2 hPa SW 16.3 km/h 17.7 km/h 32% 0 mm 394.0 W/m2
15:26 21.1 °C 2.8 °C 1019.2 hPa SW 9.7 km/h 14.5 km/h 30% 0 mm 348.0 W/m2
15:37 21 °C 3.2 °C 1019.2 hPa SW 11.1 km/h 14.5 km/h 31% 0 mm 318.0 W/m2
15:51 21.3 °C 3 °C 1018.8 hPa SW 9.7 km/h 14.5 km/h 30% 0 mm 272.0 W/m2
16:04 21.2 °C 2.9 °C 1018.8 hPa SW 16.3 km/h 17.7 km/h 30% 0 mm 225.0 W/m2
16:12 21.2 °C 2.9 °C 1018.8 hPa SW 16.3 km/h 16.3 km/h 30% 0 mm 185.0 W/m2
16:22 21.1 °C 2.8 °C 1018.8 hPa SW 13 km/h 19.3 km/h 30% 0 mm 144.0 W/m2
16:28 21 °C 2.8 °C 1019.2 hPa SW 14.3 km/h 20.9 km/h 30% 0 mm 127.0 W/m2
16:33 20.8 °C 3 °C 1019.2 hPa SW 16.3 km/h 17.7 km/h 31% 0 mm 111.0 W/m2
16:51 20.5 °C 3.2 °C 1019.2 hPa SW 16.3 km/h 19.3 km/h 32% 0 mm 62.0 W/m2
17:01 20.2 °C 3 °C 1019.2 hPa SW 16.3 km/h 19.3 km/h 32% 0 mm 37.0 W/m2
17:10 19.8 °C 3.1 °C 1019.2 hPa SW 16.3 km/h 17.7 km/h 33% 0 mm 14.0 W/m2
17:22 19.2 °C 3.4 °C 1019.2 hPa SW 14.3 km/h 16.1 km/h 35% 0 mm 7.0 W/m2
17:38 18.5 °C 3.1 °C 1019.5 hPa SW 13 km/h 19.3 km/h 36% 0 mm 0.0 W/m2
17:53 18 °C 3.5 °C 1019.5 hPa SW 16.3 km/h 17.7 km/h 38% 0 mm 0.0 W/m2
19:19 15.6 °C 2.7 °C 1020.5 hPa SW 16.3 km/h 17.7 km/h 42% 0 mm 0.0 W/m2
19:43 14.9 °C 2.1 °C 1020.9 hPa SW 14.3 km/h 17.7 km/h 42% 0 mm 0.0 W/m2
19:59 14.7 °C 1.9 °C 1021.2 hPa SW 9.7 km/h 16.1 km/h 42% 0 mm 0.0 W/m2
20:39 14.1 °C 1.7 °C 1021.2 hPa SW 11.1 km/h 14.5 km/h 43% 0 mm 0.0 W/m2
20:47 14.1 °C 1.4 °C 1021.6 hPa SW 13 km/h 16.1 km/h 42% 0 mm 0.0 W/m2
21:15 13.8 °C 0.8 °C 1021.6 hPa SW 14.3 km/h 16.1 km/h 41% 0 mm 0.0 W/m2
21:42 12.8 °C 0.5 °C 1021.9 hPa SW 9.7 km/h 12.9 km/h 43% 0 mm 0.0 W/m2
21:53 12.6 °C 0.7 °C 1021.9 hPa SW 11.1 km/h 14.5 km/h 44% 0 mm 0.0 W/m2
22:05 12.4 °C 0.5 °C 1021.9 hPa SW 7.9 km/h 11.3 km/h 44% 0 mm 0.0 W/m2
22:14 12.1 °C 0.5 °C 1021.9 hPa SW 11.1 km/h 12.9 km/h 45% 0 mm 0.0 W/m2
22:25 11.9 °C 0.6 °C 1021.6 hPa SW 13 km/h 13 km/h 46% 0 mm 0.0 W/m2
22:36 11.8 °C 0.6 °C 1021.6 hPa SW 9.7 km/h 12.9 km/h 46% 0 mm 0.0 W/m2
22:45 11.8 °C 0.6 °C 1021.6 hPa SW 16.3 km/h 17.7 km/h 46% 0 mm 0.0 W/m2
22:50 11.8 °C 0.6 °C 1021.9 hPa SW 11.1 km/h 16.1 km/h 46% 0 mm 0.0 W/m2
23:00 11.7 °C 0.5 °C 1021.6 hPa SW 14.3 km/h 16.1 km/h 46% 0 mm 0.0 W/m2
23:05 11.7 °C 0.5 °C 1021.6 hPa SW 11.1 km/h 17.7 km/h 46% 0 mm 0.0 W/m2
23:10 11.7 °C 0.8 °C 1021.9 hPa SW 14.3 km/h 17.7 km/h 47% 0 mm 0.0 W/m2
23:15 11.6 °C 0.7 °C 1021.9 hPa SW 13 km/h 14.5 km/h 47% 0 mm 0.0 W/m2
23:20 11.6 °C 1 °C 1021.9 hPa SW 13 km/h 17.7 km/h 48% 0 mm 0.0 W/m2
23:26 11.7 °C 1 °C 1021.9 hPa SW 14.3 km/h 17.7 km/h 48% 0 mm 0.0 W/m2
23:31 11.6 °C 1 °C 1021.9 hPa SW 9.7 km/h 16.1 km/h 48% 0 mm 0.0 W/m2
23:40 11.6 °C 1 °C 1021.9 hPa SW 13 km/h 17.7 km/h 48% 0 mm 0.0 W/m2
23:46 11.7 °C 1 °C 1021.9 hPa SW 16.3 km/h 16.3 km/h 48% 0 mm 0.0 W/m2
23:56 11.6 °C 1.2 °C 1021.9 hPa SW 16.3 km/h 17.7 km/h 49% 0 mm 0.0 W/m2
Canyon Roadhouse, Fishriver Canyon, Namibia
Compliments of Weather Underground - 2 mb